Terminal Aerodrome Forecast
Issued by NWS

Home | Current Version | Previous Version | Graphics & Text | Print | Product List | Glossary On
Versions: 1 2 3 4 5 6 7 8 9 10 11 12 13 14 15 16 17 18 19 20
000
FTUS43 KMPX 222339
TAFRNH
TAF
KRNH 222339Z 2300/2324 VRB03KT P6SM FEW250
     FM230900 00000KT 4SM BR FEW002
     FM231400 12008KT P6SM SCT035 BKN150
      TEMPO 2315/2319 3SM TSRA BKN035CB
     FM232000 15011KT P6SM SCT040 BKN090=

USA.gov is the U.S. government's official web portal to all federal, state and local government web resources and services.